Time;durP1;ratioP1;P1;durP2;ratioP2;P2;SDS_P1;SDS_P2;PMS_P1;PMS_P2;Temp;Humidity;BMP_temperature;BMP_pressure;BME280_temperature;BME280_humidity;BME280_pressure;Samples;Min_cycle;Max_cycle;Signal;HPM_P1;HPM_P2
2022/04/11 00:02:03;;;;;;;;;6.00;5.25;;;;;12.12;46.65;100494.44;146603;572;46016;-77
2022/04/11 00:04:55;;;;;;;;;5.00;5.00;;;;;12.14;46.84;100500.56;146606;656;46008;-76
2022/04/11 00:07:47;;;;;;;;;6.75;6.00;;;;;12.14;46.99;100510.09;146605;689;46016;-78
2022/04/11 00:10:39;;;;;;;;;6.75;5.50;;;;;12.10;47.46;100510.78;146605;564;46021;-79
2022/04/11 00:13:32;;;;;;;;;6.50;5.00;;;;;12.08;47.78;100513.31;146602;573;46916;-79
2022/04/11 00:16:23;;;;;;;;;8.00;8.00;;;;;12.06;46.64;100514.09;146609;615;46020;-79
2022/04/11 00:19:15;;;;;;;;;7.75;6.75;;;;;12.04;47.49;100514.00;146604;630;46016;-74
2022/04/11 00:22:08;;;;;;;;;7.00;7.00;;;;;12.03;47.50;100517.44;146606;616;46020;-83
2022/04/11 00:25:00;;;;;;;;;6.50;6.50;;;;;12.01;47.48;100517.38;146605;596;46017;-83
2022/04/11 00:27:53;;;;;;;;;7.50;7.50;;;;;11.99;47.54;100520.72;146608;576;46021;-83
2022/04/11 00:30:45;;;;;;;;;9.25;7.75;;;;;11.94;47.72;100524.84;146601;628;47010;-83
2022/04/11 00:33:37;;;;;;;;;9.75;9.00;;;;;11.87;47.60;100520.19;146606;590;47009;-81
2022/04/11 00:36:30;;;;;;;;;7.25;7.25;;;;;11.82;47.37;100534.69;146601;583;47016;-81
2022/04/11 00:39:22;;;;;;;;;9.50;9.50;;;;;11.77;47.68;100538.00;146607;586;46020;-82
2022/04/11 00:42:16;;;;;;;;;10.25;10.00;;;;;11.68;48.09;100547.97;146602;596;46017;-78
2022/04/11 00:45:09;;;;;;;;;7.75;7.75;;;;;11.64;47.72;100555.53;146606;603;46020;-77
2022/04/11 00:48:03;;;;;;;;;10.25;9.25;;;;;11.62;47.83;100554.56;146604;588;46016;-76
2022/04/11 00:51:00;;;;;;;;;10.00;9.00;;;;;11.61;47.93;100560.59;146607;601;46020;-75
2022/04/11 00:53:54;;;;;;;;;10.75;9.50;;;;;11.57;48.05;100568.25;146603;632;47010;-77
2022/04/11 00:56:47;;;;;;;;;12.50;11.00;;;;;11.53;47.82;100568.06;146607;646;46020;-78
2022/04/11 00:59:39;;;;;;;;;6.75;6.00;;;;;11.47;47.82;100573.88;146604;750;47010;-76
2022/04/11 01:02:31;;;;;;;;;9.00;8.75;;;;;11.51;47.30;100582.69;146609;588;46020;-77
2022/04/11 01:05:24;;;;;;;;;11.75;10.75;;;;;11.48;47.54;100585.13;146603;582;47010;-75
2022/04/11 01:08:16;;;;;;;;;13.25;9.50;;;;;11.47;47.33;100589.44;146609;563;46008;-77
2022/04/11 01:11:09;;;;;;;;;9.50;8.00;;;;;11.48;47.08;100599.00;146602;564;47011;-76
2022/04/11 01:14:02;;;;;;;;;10.00;9.00;;;;;11.50;46.71;100594.78;146608;572;47008;-76
2022/04/11 01:16:59;;;;;;;;;12.25;10.75;;;;;11.55;46.63;100598.44;146605;607;46017;-76
2022/04/11 01:19:50;;;;;;;;;9.00;8.50;;;;;11.60;46.21;100606.47;146607;589;46020;-73
2022/04/11 01:22:44;;;;;;;;;10.00;9.75;;;;;11.62;46.34;100614.31;146607;600;46026;-74
2022/04/11 01:25:36;;;;;;;;;11.50;9.25;;;;;11.64;45.97;100616.16;146608;661;46020;-74
2022/04/11 01:28:29;;;;;;;;;11.50;10.50;;;;;11.68;45.82;100604.19;146602;634;47010;-75
2022/04/11 01:31:20;;;;;;;;;11.00;10.50;;;;;11.64;45.87;100597.09;146608;577;47008;-72
2022/04/11 01:34:13;;;;;;;;;11.75;10.75;;;;;11.68;45.25;100604.19;146605;609;46016;-71
2022/04/11 01:37:04;;;;;;;;;1.50;1.50;;;;;11.68;45.10;100612.00;146610;569;46008;-72
2022/04/11 01:39:57;;;;;;;;;15.25;12.75;;;;;11.69;44.81;100611.19;146606;567;45917;-73
2022/04/11 01:42:49;;;;;;;;;12.75;9.50;;;;;11.65;45.00;100610.16;146607;599;46020;-73
2022/04/11 01:45:41;;;;;;;;;10.75;9.25;;;;;11.65;45.68;100612.78;146602;576;47013;-82
2022/04/11 01:48:34;;;;;;;;;9.00;9.00;;;;;11.66;45.42;100611.94;146609;570;46008;-84
2022/04/11 01:51:26;;;;;;;;;12.25;10.50;;;;;11.70;45.44;100612.97;146603;574;47010;-83
2022/04/11 01:54:18;;;;;;;;;10.00;10.00;;;;;11.73;45.49;100613.97;146606;668;46021;-83
2022/04/11 01:57:10;;;;;;;;;9.75;9.75;;;;;11.76;45.86;100629.72;146604;607;46016;-82
2022/04/11 02:00:02;;;;;;;;;13.75;11.25;;;;;11.78;45.93;100637.59;146607;637;46020;-81
2022/04/11 02:02:55;;;;;;;;;11.50;11.50;;;;;11.76;45.95;100634.00;146603;604;46017;-82
2022/04/11 02:05:48;;;;;;;;;13.25;11.00;;;;;11.73;46.48;100633.87;146608;569;46020;-81
2022/04/11 02:08:40;;;;;;;;;10.00;10.00;;;;;11.72;46.18;100655.50;146603;634;46022;-79
2022/04/11 02:11:32;;;;;;;;;11.75;11.75;;;;;11.66;45.50;100648.31;146608;592;47008;-79
2022/04/11 02:14:25;;;;;;;;;13.50;10.75;;;;;11.62;45.75;100653.25;146605;640;46016;-81
2022/04/11 02:17:17;;;;;;;;;13.25;12.25;;;;;11.54;45.63;100659.00;146607;627;46021;-75
2022/04/11 02:20:11;;;;;;;;;10.25;9.50;;;;;11.53;45.80;100661.56;146606;605;46033;-77
2022/04/11 02:23:04;;;;;;;;;12.75;11.25;;;;;11.51;46.19;100658.88;146609;598;46020;-80
2022/04/11 02:25:56;;;;;;;;;12.25;12.00;;;;;11.22;46.08;100613.41;146605;652;45917;-79
2022/04/11 02:28:48;;;;;;;;;13.25;10.50;;;;;11.50;45.88;100664.00;146606;615;47008;-83
2022/04/11 02:31:41;;;;;;;;;10.50;10.25;;;;;11.53;46.37;100666.75;146604;573;47011;-75
2022/04/11 02:34:34;;;;;;;;;12.25;11.25;;;;;11.53;46.24;100667.63;146605;607;46020;-80
2022/04/11 02:37:26;;;;;;;;;11.75;10.75;;;;;11.49;46.19;100673.47;146603;587;46016;-75
2022/04/11 02:40:18;;;;;;;;;10.75;10.75;;;;;11.46;46.71;100670.72;146608;582;46008;-73
2022/04/11 02:43:10;;;;;;;;;11.00;10.25;;;;;11.46;45.71;100681.13;146618;575;45917;-73
2022/04/11 02:46:02;;;;;;;;;12.50;11.25;;;;;11.46;45.18;100698.41;146629;664;45022;-73
2022/04/11 02:48:55;;;;;;;;;11.75;9.75;;;;;11.47;44.95;100701.09;146625;595;45016;-77
2022/04/11 02:51:47;;;;;;;;;11.50;9.25;;;;;11.48;44.83;100700.28;146623;594;45020;-75
2022/04/11 02:54:43;;;;;;;;;12.00;9.25;;;;;11.48;45.05;100710.66;146627;572;45010;-75
2022/04/11 02:57:38;;;;;;;;;10.50;9.00;;;;;11.45;44.87;100718.31;146630;573;45008;-73
2022/04/11 03:00:30;;;;;;;;;9.50;9.00;;;;;11.45;45.04;100723.50;146623;606;46008;-77
2022/04/11 03:03:22;;;;;;;;;15.00;13.75;;;;;11.45;44.68;100730.41;146627;564;44919;-75
2022/04/11 03:06:14;;;;;;;;;9.75;9.50;;;;;11.44;45.09;100733.81;146624;566;46010;-76
2022/04/11 03:09:08;;;;;;;;;10.75;9.50;;;;;11.43;45.19;100740.72;146628;584;45008;-78
2022/04/11 03:12:00;;;;;;;;;46.25;37.75;;;;;11.45;45.42;100741.66;146618;625;46917;-71
2022/04/11 03:14:55;;;;;;;;;8.75;8.75;;;;;11.45;45.23;100740.78;146625;569;45020;-78
2022/04/11 03:17:47;;;;;;;;;12.50;10.50;;;;;11.43;45.29;100739.81;146618;598;47012;-80
2022/04/11 03:20:39;;;;;;;;;11.50;10.25;;;;;11.40;44.95;100752.63;146600;569;46008;-71
2022/04/11 03:23:32;;;;;;;;;10.25;10.25;;;;;11.39;44.41;100756.06;146598;606;46917;-74
2022/04/11 03:26:23;;;;;;;;;10.75;10.00;;;;;11.40;44.12;100758.75;146598;586;47008;-72
2022/04/11 03:29:16;;;;;;;;;11.00;9.00;;;;;11.43;44.34;100753.72;146597;582;47010;-72
2022/04/11 03:32:09;;;;;;;;;11.50;10.50;;;;;11.41;44.78;100754.44;146598;564;47008;-73
2022/04/11 03:35:02;;;;;;;;;12.25;10.75;;;;;11.37;44.73;100762.87;146597;600;46020;-73
2022/04/11 03:37:54;;;;;;;;;14.00;12.50;;;;;11.36;44.86;100761.09;146601;647;46008;-72
2022/04/11 03:40:46;;;;;;;;;9.00;9.00;;;;;11.35;44.92;100757.62;146597;572;46012;-73
2022/04/11 03:43:38;;;;;;;;;10.50;10.50;;;;;11.33;44.29;100760.13;146599;587;47008;-72
2022/04/11 03:46:30;;;;;;;;;12.50;12.50;;;;;11.32;44.62;100753.16;146597;565;46010;-71
2022/04/11 03:49:22;;;;;;;;;10.50;9.50;;;;;11.30;44.33;100759.09;146600;571;46020;-72
2022/04/11 03:52:14;;;;;;;;;9.25;9.25;;;;;11.32;44.29;100763.56;146598;595;46016;-73
2022/04/11 03:55:06;;;;;;;;;10.00;9.75;;;;;11.30;44.36;100767.78;146600;641;46008;-73
2022/04/11 03:57:58;;;;;;;;;11.25;10.00;;;;;11.31;44.81;100779.06;146598;581;46010;-73
2022/04/11 04:00:50;;;;;;;;;9.00;9.00;;;;;11.33;44.55;100782.59;146600;583;46008;-72
2022/04/11 04:03:43;;;;;;;;;11.75;10.75;;;;;11.35;44.40;100783.59;146596;614;47012;-71
2022/04/11 04:06:35;;;;;;;;;10.75;10.00;;;;;11.38;44.50;100781.16;146602;597;46020;-75
2022/04/11 04:09:28;;;;;;;;;12.00;9.75;;;;;11.39;44.81;100789.81;146598;576;46028;-76
2022/04/11 04:12:24;;;;;;;;;9.25;7.75;;;;;11.38;44.26;100796.72;146601;684;46020;-77
2022/04/11 04:15:16;;;;;;;;;10.75;10.25;;;;;11.35;43.47;100793.97;146598;608;46917;-73
2022/04/11 04:18:10;;;;;;;;;9.75;8.50;;;;;11.37;43.86;100800.16;146600;643;47008;-77
2022/04/11 04:21:03;;;;;;;;;12.00;10.50;;;;;11.40;44.17;100807.16;146597;584;46016;-77
2022/04/11 04:23:56;;;;;;;;;9.25;9.25;;;;;11.39;43.66;100813.19;146599;599;46021;-77
2022/04/11 04:26:48;;;;;;;;;9.75;8.50;;;;;11.40;43.60;100814.94;146599;593;46016;-72
2022/04/11 04:29:40;;;;;;;;;12.00;11.00;;;;;11.41;43.77;100825.44;146598;590;46020;-73
2022/04/11 04:32:33;;;;;;;;;13.00;11.25;;;;;11.44;43.75;100827.28;146597;642;47010;-77
2022/04/11 04:35:25;;;;;;;;;10.00;9.75;;;;;11.45;44.12;100836.84;146600;570;46008;-76
2022/04/11 04:38:17;;;;;;;;;11.00;10.25;;;;;11.46;44.29;100839.50;146598;593;46016;-76
2022/04/11 04:41:08;;;;;;;;;12.50;12.50;;;;;11.49;44.29;100843.97;146600;608;46008;-77
2022/04/11 04:44:01;;;;;;;;;11.00;11.00;;;;;11.51;44.38;100851.03;146597;625;46011;-71
2022/04/11 04:46:52;;;;;;;;;10.75;9.75;;;;;11.55;44.59;100852.94;146602;576;46020;-71
2022/04/11 04:49:45;;;;;;;;;16.75;13.25;;;;;11.55;45.00;100863.34;146597;569;46016;-71
2022/04/11 04:52:38;;;;;;;;;15.75;13.75;;;;;11.55;44.86;100862.44;146600;717;46021;-73
2022/04/11 04:55:30;;;;;;;;;12.00;10.00;;;;;11.52;44.82;100858.00;146597;603;46016;-73
2022/04/11 04:58:21;;;;;;;;;12.75;12.50;;;;;11.52;44.69;100870.09;146599;649;46020;-72
2022/04/11 05:01:14;;;;;;;;;11.00;10.75;;;;;11.54;44.08;100874.56;146596;617;47010;-70
2022/04/11 05:04:06;;;;;;;;;9.75;9.75;;;;;11.61;43.87;100872.25;146598;616;46020;-70
2022/04/11 05:06:58;;;;;;;;;9.75;9.75;;;;;11.80;43.72;100885.31;146598;572;47012;-72
2022/04/11 05:09:51;;;;;;;;;12.00;11.50;;;;;12.07;43.39;100877.13;146602;605;46020;-71
2022/04/11 05:12:47;;;;;;;;;13.25;13.25;;;;;12.34;42.87;100886.22;146596;574;46016;-72
2022/04/11 05:15:42;;;;;;;;;15.00;13.00;;;;;12.57;41.98;100891.59;146600;661;46021;-72
2022/04/11 05:18:34;;;;;;;;;10.25;8.50;;;;;12.77;41.83;100892.47;146595;598;47010;-73
2022/04/11 05:21:26;;;;;;;;;10.75;9.50;;;;;12.92;41.33;100893.16;146600;578;46008;-72
2022/04/11 05:24:18;;;;;;;;;12.00;10.00;;;;;13.02;41.41;100891.84;146595;593;47010;-72
2022/04/11 05:27:10;;;;;;;;;11.00;10.50;;;;;13.09;40.79;100896.53;146599;635;46029;-76
2022/04/11 05:30:05;;;;;;;;;7.75;7.75;;;;;13.12;40.98;100894.94;146596;577;47010;-75
2022/04/11 05:32:58;;;;;;;;;11.75;10.00;;;;;13.18;40.43;100910.84;146601;605;46008;-73
2022/04/11 05:35:51;;;;;;;;;12.75;10.00;;;;;12.30;40.20;100750.78;146598;583;46016;-77
2022/04/11 05:38:43;;;;;;;;;9.50;8.75;;;;;13.32;39.83;100923.59;146604;624;46020;-73
2022/04/11 05:41:35;;;;;;;;;11.25;10.00;;;;;13.35;39.59;100924.59;146598;565;46010;-76
2022/04/11 05:44:27;;;;;;;;;8.25;8.00;;;;;13.51;39.40;100930.47;146600;564;46009;-75
2022/04/11 05:47:19;;;;;;;;;9.00;8.00;;;;;13.74;39.31;100936.69;146596;577;47010;-75
2022/04/11 05:50:12;;;;;;;;;10.75;10.00;;;;;13.99;39.50;100944.66;146603;596;46020;-75
2022/04/11 05:53:04;;;;;;;;;12.00;9.50;;;;;14.24;38.84;100946.53;146596;676;47010;-75
2022/04/11 05:55:56;;;;;;;;;8.00;7.50;;;;;14.41;38.18;100951.53;146601;575;46020;-75
2022/04/11 05:58:49;;;;;;;;;8.25;7.75;;;;;14.58;38.46;100949.59;146600;619;46010;-75
2022/04/11 06:01:41;;;;;;;;;7.00;7.00;;;;;14.78;38.02;100959.09;146601;564;46020;-75
2022/04/11 06:04:33;;;;;;;;;9.50;9.25;;;;;14.97;37.82;100953.72;146597;597;46029;-75
2022/04/11 06:07:27;;;;;;;;;8.50;6.50;;;;;15.15;36.90;100956.13;146599;601;46021;-75
2022/04/11 06:10:19;;;;;;;;;6.75;6.75;;;;;15.29;37.14;100956.59;146598;663;46016;-76
2022/04/11 06:13:11;;;;;;;;;7.75;7.00;;;;;15.46;36.78;100949.37;146603;570;45021;-76
2022/04/11 06:16:04;;;;;;;;;6.50;5.25;;;;;15.63;36.57;100949.97;146599;602;46017;-77
2022/04/11 06:18:56;;;;;;;;;8.25;7.50;;;;;15.80;36.15;100945.34;146602;582;46008;-74
2022/04/11 06:21:48;;;;;;;;;6.00;6.00;;;;;15.91;35.57;100944.84;146599;580;46016;-73
2022/04/11 06:24:41;;;;;;;;;7.75;6.50;;;;;16.01;36.01;100950.38;146599;613;46008;-74
2022/04/11 06:27:33;;;;;;;;;7.25;7.00;;;;;16.13;35.05;100948.16;146598;576;46010;-77
2022/04/11 06:30:25;;;;;;;;;6.75;5.25;;;;;16.17;35.38;100961.41;146601;590;46020;-76
2022/04/11 06:33:18;;;;;;;;;5.50;5.25;;;;;16.16;33.78;100954.38;146598;565;46016;-76
2022/04/11 06:36:10;;;;;;;;;6.25;6.25;;;;;15.98;32.76;100956.44;146600;583;46009;-73
2022/04/11 06:39:02;;;;;;;;;9.25;6.50;;;;;15.81;34.11;100963.69;146597;602;46916;-70
2022/04/11 06:41:54;;;;;;;;;7.00;6.00;;;;;15.70;33.35;100959.84;146601;573;46020;-74
2022/04/11 06:44:47;;;;;;;;;7.25;5.50;;;;;15.62;34.04;100969.09;146599;622;46011;-72
2022/04/11 06:47:39;;;;;;;;;5.00;5.00;;;;;14.65;34.60;100806.37;146600;709;47008;-72
2022/04/11 06:50:31;;;;;;;;;7.50;7.00;;;;;15.61;34.59;100965.59;146597;580;47010;-71
2022/04/11 06:53:24;;;;;;;;;6.75;6.25;;;;;15.61;33.83;100976.06;146601;737;47008;-72
2022/04/11 06:56:16;;;;;;;;;6.75;6.75;;;;;15.03;34.59;100859.06;146598;566;46008;-72
2022/04/11 06:59:08;;;;;;;;;4.50;4.50;;;;;15.62;33.45;100969.97;146599;566;46021;-72
2022/04/11 07:02:01;;;;;;;;;5.25;5.25;;;;;14.95;33.94;100844.81;146602;665;45917;-72
2022/04/11 07:04:52;;;;;;;;;6.50;6.25;;;;;15.79;33.83;100972.31;146598;629;47008;-72
2022/04/11 07:07:45;;;;;;;;;5.25;4.50;;;;;15.97;32.92;100983.41;146599;577;46010;-70
2022/04/11 07:10:40;;;;;;;;;3.75;3.75;;;;;16.20;32.25;100980.63;146603;616;46020;-73
2022/04/11 07:13:32;;;;;;;;;5.00;4.00;;;;;16.47;31.92;100980.66;146598;580;46016;-72
2022/04/11 07:16:24;;;;;;;;;3.75;3.75;;;;;16.77;32.61;100997.34;146599;630;47008;-72
2022/04/11 07:19:17;;;;;;;;;3.00;3.00;;;;;17.03;31.63;100997.22;146597;680;47012;-73
2022/04/11 07:22:09;;;;;;;;;5.25;4.00;;;;;17.19;29.46;101012.53;146598;573;47008;-72
2022/04/11 07:25:01;;;;;;;;;6.25;3.00;;;;;17.31;28.76;100997.16;146600;602;46010;-73
2022/04/11 07:27:55;;;;;;;;;5.75;4.75;;;;;17.27;30.13;101013.66;146602;581;46008;-72
2022/04/11 07:30:48;;;;;;;;;4.00;4.00;;;;;17.26;30.53;101017.13;146600;664;46917;-73
2022/04/11 07:33:40;;;;;;;;;5.00;4.75;;;;;17.31;29.39;101027.72;146601;589;46020;-76
2022/04/11 07:36:32;;;;;;;;;4.75;4.25;;;;;17.41;29.56;101034.13;146597;624;47012;-77
2022/04/11 07:39:24;;;;;;;;;5.00;3.75;;;;;17.51;28.87;101033.56;146602;586;46020;-75
2022/04/11 07:42:17;;;;;;;;;2.75;2.00;;;;;17.61;29.77;101013.72;146599;607;46016;-76
2022/04/11 07:45:10;;;;;;;;;8.50;8.50;;;;;17.70;27.62;101006.97;146605;651;46008;-75
2022/04/11 07:48:03;;;;;;;;;3.75;3.00;;;;;17.73;29.29;101016.66;146596;600;47010;-75
2022/04/11 07:50:55;;;;;;;;;2.00;2.00;;;;;17.76;30.03;101008.88;146598;581;46021;-75
2022/04/11 07:53:47;;;;;;;;;5.25;3.75;;;;;17.77;28.07;101019.44;146596;592;47010;-74
2022/04/11 07:56:39;;;;;;;;;4.00;3.00;;;;;17.89;27.97;101038.97;146601;684;47008;-76
2022/04/11 07:59:32;;;;;;;;;4.75;3.75;;;;;18.05;29.12;101024.53;146597;609;46917;-74
2022/04/11 08:02:28;;;;;;;;;4.00;4.00;;;;;18.21;30.17;101024.94;146598;590;47008;-74
2022/04/11 08:05:20;;;;;;;;;5.25;3.75;;;;;18.34;28.94;101043.63;146600;631;45917;-73
2022/04/11 08:08:13;;;;;;;;;1.75;1.00;;;;;18.43;28.32;101055.22;146603;641;46020;-74
2022/04/11 08:11:05;;;;;;;;;3.00;3.00;;;;;18.54;29.13;101067.75;146598;564;46016;-74
2022/04/11 08:13:57;;;;;;;;;4.00;3.50;;;;;18.58;28.32;101069.59;146601;592;46008;-73
2022/04/11 08:16:49;;;;;;;;;4.25;3.75;;;;;18.59;27.21;101042.47;146598;607;47010;-72
2022/04/11 08:19:41;;;;;;;;;6.25;3.50;;;;;18.59;28.02;101056.47;146623;587;46020;-74
2022/04/11 08:22:33;;;;;;;;;4.25;4.25;;;;;18.62;28.64;101076.69;146624;600;45917;-74
2022/04/11 08:25:26;;;;;;;;;4.25;3.00;;;;;18.59;27.65;101071.34;146625;591;45919;-74
2022/04/11 08:28:20;;;;;;;;;7.00;5.25;;;;;18.57;27.92;101080.97;146622;717;45017;-73
2022/04/11 08:31:12;;;;;;;;;1.50;1.50;;;;;18.55;27.11;101095.78;146625;604;45008;-75
2022/04/11 08:34:04;;;;;;;;;3.00;3.00;;;;;18.57;28.30;101099.34;146623;716;45917;-74
2022/04/11 08:36:56;;;;;;;;;4.50;3.75;;;;;18.64;28.28;101091.63;146625;573;45020;-74
2022/04/11 08:39:48;;;;;;;;;4.75;3.25;;;;;18.75;27.10;101093.66;146623;569;45010;-74
2022/04/11 08:42:45;;;;;;;;;3.00;3.00;;;;;18.85;27.91;101119.31;146627;569;45021;-74
2022/04/11 08:45:38;;;;;;;;;3.25;2.25;;;;;18.95;26.54;101099.41;146627;577;45024;-74
2022/04/11 08:48:30;;;;;;;;;4.25;3.00;;;;;19.07;29.11;101110.19;146623;675;46008;-72
2022/04/11 08:51:22;;;;;;;;;3.25;3.25;;;;;19.15;27.33;101096.34;146627;601;45010;-75
2022/04/11 08:54:15;;;;;;;;;6.00;5.50;;;;;19.17;27.96;101116.53;146626;637;45020;-74
2022/04/11 08:57:08;;;;;;;;;5.25;4.00;;;;;19.14;28.32;101122.59;146627;650;45010;-74
2022/04/11 09:00:04;;;;;;;;;5.50;4.75;;;;;19.12;28.90;101112.03;146624;597;45020;-75
2022/04/11 09:02:56;;;;;;;;;3.75;3.00;;;;;19.13;27.26;101108.59;146628;647;45010;-72
2022/04/11 09:06:17;;;;;;;;;5.00;4.75;;;;;19.05;28.55;101112.75;146625;615;45021;-74
2022/04/11 09:09:11;;;;;;;;;4.00;2.75;;;;;19.02;26.55;101102.19;146628;575;45010;-76
2022/04/11 09:12:03;;;;;;;;;4.50;4.50;;;;;18.97;26.99;101121.31;146626;628;46008;-76
2022/04/11 09:14:58;;;;;;;;;4.00;3.00;;;;;18.94;27.60;101111.66;146621;629;46010;-73
2022/04/11 09:17:52;;;;;;;;;4.75;4.75;;;;;18.89;27.28;101127.28;146620;597;45021;-73
2022/04/11 09:20:50;;;;;;;;;4.25;3.00;;;;;18.77;29.34;101120.84;146599;576;46017;-75
2022/04/11 09:23:42;;;;;;;;;2.00;2.00;;;;;18.69;26.30;101115.37;146601;664;46008;-78
2022/04/11 09:26:34;;;;;;;;;5.00;5.00;;;;;18.57;26.64;101126.47;146599;586;46917;-76
2022/04/11 09:29:27;;;;;;;;;4.75;4.75;;;;;18.54;27.29;101121.16;146602;602;46008;-81
2022/04/11 09:32:20;;;;;;;;;4.00;4.00;;;;;18.46;26.82;101109.56;146599;571;46016;-71
2022/04/11 09:35:14;;;;;;;;;5.75;3.75;;;;;18.51;29.01;101120.19;146599;628;47008;-80
2022/04/11 09:38:20;;;;;;;;;5.25;4.00;;;;;18.63;30.33;101131.00;146617;666;46010;-78
2022/04/11 09:41:12;;;;;;;;;4.00;4.00;;;;;18.80;29.53;101134.06;146605;611;46021;-82
2022/04/11 09:44:27;;;;;;;;;4.00;2.75;;;;;18.83;29.37;101115.75;146598;592;46016;-78
2022/04/11 09:47:19;;;;;;;;;4.75;4.75;;;;;18.81;27.96;101113.06;146600;598;46020;-75
2022/04/11 09:50:12;;;;;;;;;6.50;3.75;;;;;18.77;26.75;101115.59;146596;578;47010;-76
2022/04/11 09:53:18;;;;;;;;;4.25;4.25;;;;;18.78;28.86;101115.63;146603;641;46008;-78
2022/04/11 09:56:11;;;;;;;;;3.00;3.00;;;;;18.92;27.81;101126.47;146594;618;47010;-77
2022/04/11 09:59:05;;;;;;;;;4.00;4.00;;;;;19.15;27.94;101132.25;146598;598;47008;-77
2022/04/11 10:02:22;;;;;;;;;;;;;;;;;;;;;
2022/04/11 10:09:48;;;;;;;;;4.75;4.00;;;;;19.62;28.87;101145.56;146597;597;47012;-78
2022/04/11 10:12:47;;;;;;;;;1.50;1.50;;;;;19.71;27.00;101142.25;146601;564;46008;-78
2022/04/11 10:15:40;;;;;;;;;6.75;5.75;;;;;19.77;27.18;101131.87;146598;616;46917;-77
2022/04/11 10:18:34;;;;;;;;;4.50;4.00;;;;;19.83;27.32;101129.38;146599;575;47021;-77
2022/04/11 10:21:27;;;;;;;;;5.00;4.00;;;;;20.01;28.24;101139.38;146595;569;47010;-77
2022/04/11 10:25:06;;;;;;;;;5.50;5.00;;;;;20.34;29.22;101146.09;146602;595;46020;-79
2022/04/11 10:28:27;;;;;;;;;3.00;3.00;;;;;20.40;27.99;101131.28;146598;596;46016;-78
2022/04/11 10:31:20;;;;;;;;;3.00;2.75;;;;;20.44;26.26;101141.03;146603;637;46020;-76
2022/04/11 10:34:47;;;;;;;;;4.75;2.75;;;;;20.58;27.15;101145.69;146598;712;46017;-79
2022/04/11 10:38:21;;;;;;;;;3.75;3.00;;;;;19.72;28.33;100979.19;146601;569;46020;-77
2022/04/11 10:41:13;;;;;;;;;4.75;3.25;;;;;20.77;27.75;101140.75;146598;614;46030;-78
2022/04/11 10:44:49;;;;;;;;;3.75;3.00;;;;;19.97;29.44;100982.22;146600;633;46008;-76
2022/04/11 10:47:51;;;;;;;;;4.00;2.25;;;;;21.00;27.31;101132.34;146599;629;46016;-77
2022/04/11 10:51:00;;;;;;;;;4.50;4.50;;;;;21.00;28.41;101145.50;146600;580;46020;-77
2022/04/11 10:54:23;;;;;;;;;3.25;3.25;;;;;20.95;28.33;101144.53;146600;602;46016;-76
2022/04/11 10:57:15;;;;;;;;;5.50;4.75;;;;;20.89;27.96;101142.69;146601;662;46021;-77
2022/04/11 11:00:12;;;;;;;;;4.00;4.00;;;;;20.95;27.49;101142.78;146598;630;47010;-77
2022/04/11 11:03:13;;;;;;;;;4.00;4.00;;;;;20.99;27.62;101139.31;146600;582;46008;-78
2022/04/11 11:06:23;;;;;;;;;5.00;5.00;;;;;21.03;29.30;101135.00;146597;570;46016;-78
2022/04/11 11:09:22;;;;;;;;;3.00;3.00;;;;;21.06;27.36;101131.50;146600;596;46008;-80
2022/04/11 11:12:24;;;;;;;;;4.00;3.00;;;;;20.92;27.96;101139.22;146597;680;46012;-78
2022/04/11 11:15:30;;;;;;;;;2.00;2.00;;;;;20.82;27.81;101139.94;146603;686;46020;-77
2022/04/11 11:18:22;;;;;;;;;4.00;4.00;;;;;20.78;26.70;101133.75;146599;665;46917;-79
2022/04/11 11:21:15;;;;;;;;;3.00;2.00;;;;;20.76;26.97;101136.34;146598;647;46008;-80
2022/04/11 11:24:18;;;;;;;;;4.25;3.75;;;;;20.70;26.31;101119.56;146599;591;46016;-78
2022/04/11 11:27:10;;;;;;;;;3.75;3.00;;;;;20.61;26.38;101132.56;146603;569;46008;-78
2022/04/11 11:30:11;;;;;;;;;3.25;3.25;;;;;20.59;26.77;101134.28;146597;661;47012;-78
2022/04/11 11:33:05;;;;;;;;;7.00;4.00;;;;;20.58;28.36;101140.44;146600;650;47008;-81
2022/04/11 11:35:59;;;;;;;;;4.50;4.50;;;;;20.56;26.88;101131.59;146596;636;47010;-77
2022/04/11 11:38:52;;;;;;;;;4.00;4.00;;;;;20.61;27.55;101132.56;146600;647;46020;-77
2022/04/11 11:41:44;;;;;;;;;3.75;3.25;;;;;20.71;26.77;101123.94;146597;603;47010;-77
2022/04/11 11:44:44;;;;;;;;;5.75;4.75;;;;;20.90;27.99;101143.56;146603;644;46020;-78
2022/04/11 11:47:38;;;;;;;;;5.50;3.75;;;;;21.10;26.92;101125.44;146598;696;46017;-78
2022/04/11 11:50:30;;;;;;;;;2.25;2.00;;;;;21.23;25.09;101120.34;146603;684;46008;-80
2022/04/11 11:53:22;;;;;;;;;2.50;1.75;;;;;21.35;25.30;101126.66;146598;723;46012;-77
2022/04/11 11:56:15;;;;;;;;;4.25;4.00;;;;;21.48;26.31;101122.47;146602;579;46008;-78
2022/04/11 11:59:07;;;;;;;;;4.75;4.25;;;;;21.57;26.07;101118.19;146599;609;46016;-79
2022/04/11 12:05:20;;;;;;;;;3.00;3.00;;;;;21.68;26.63;101116.59;146599;680;46016;-82
2022/04/11 12:08:21;;;;;;;;;5.00;2.75;;;;;21.66;25.57;101112.16;146600;572;47008;-79
2022/04/11 12:11:14;;;;;;;;;4.00;4.00;;;;;21.66;26.03;101117.44;146598;575;46016;-79
2022/04/11 12:14:11;;;;;;;;;2.25;2.25;;;;;21.73;26.59;101116.62;146601;603;46017;-79
2022/04/11 12:17:04;;;;;;;;;4.00;3.00;;;;;21.88;25.11;101110.66;146599;627;46013;-78
2022/04/11 12:19:56;;;;;;;;;3.25;2.75;;;;;21.96;24.29;101103.66;146623;626;46008;-78
2022/04/11 12:23:26;;;;;;;;;2.50;2.50;;;;;20.96;27.81;100938.06;146625;695;45016;-79
2022/04/11 12:31:13;;;;;;;;;3.25;3.25;;;;;21.93;28.05;101087.78;146619;607;47010;-78
2022/04/11 12:34:15;;;;;;;;;3.00;2.75;;;;;21.96;26.53;101084.31;146622;584;46008;-78
2022/04/11 12:37:13;;;;;;;;;2.75;2.75;;;;;21.96;26.21;101089.59;146624;576;45010;-78
2022/04/11 12:40:05;;;;;;;;;3.25;3.25;;;;;22.04;25.43;101096.72;146624;718;45008;-79
2022/04/11 12:43:03;;;;;;;;;3.00;3.00;;;;;22.13;26.06;101091.53;146627;584;45010;-78
2022/04/11 12:46:11;;;;;;;;;4.00;4.00;;;;;21.88;26.88;101042.00;146627;585;45020;-79
2022/04/11 12:49:04;;;;;;;;;3.75;3.75;;;;;22.21;25.37;101088.09;146628;588;46012;-79
2022/04/11 12:52:10;;;;;;;;;2.50;2.50;;;;;22.25;26.57;101084.66;146628;563;44917;-79
2022/04/11 12:55:07;;;;;;;;;3.25;3.00;;;;;22.32;26.02;101092.62;146626;605;44017;-79
2022/04/11 12:58:14;;;;;;;;;2.33;2.33;;;;;22.38;25.50;101086.53;146631;616;44020;-78
2022/04/11 13:01:06;;;;;;;;;4.00;4.00;;;;;22.41;24.81;101078.63;146627;663;44919;-80
2022/04/11 13:03:59;;;;;;;;;1.75;1.25;;;;;22.38;25.37;101081.22;146629;698;46008;-80
2022/04/11 13:06:55;;;;;;;;;4.00;3.00;;;;;22.37;25.36;101075.06;146627;722;45919;-79
2022/04/11 13:09:47;;;;;;;;;4.00;3.00;;;;;22.29;25.60;101073.22;146624;616;45021;-80
2022/04/11 13:12:39;;;;;;;;;3.00;3.00;;;;;22.23;25.75;101073.16;146625;667;45022;-79
2022/04/11 13:18:23;;;;;;;;;4.00;3.75;;;;;22.20;25.12;101070.50;146628;571;45009;-79
2022/04/11 13:18:44;;;;;;;;;3.00;3.00;;;;;22.13;25.96;101072.16;146606;659;46016;-85
2022/04/11 13:21:36;;;;;;;;;3.75;3.00;;;;;22.08;25.42;101065.94;146599;587;46020;-69
2022/04/11 13:24:29;;;;;;;;;3.00;3.00;;;;;22.11;26.59;101060.69;146597;726;46017;-77
2022/04/11 13:27:22;;;;;;;;;5.75;5.00;;;;;22.20;26.25;101060.81;146603;646;46008;-74
2022/04/11 13:30:14;;;;;;;;;4.50;3.75;;;;;22.27;26.73;101051.19;146596;608;47011;-74
2022/04/11 13:33:07;;;;;;;;;3.75;3.75;;;;;22.33;26.30;101053.87;146604;627;46008;-80
2022/04/11 13:36:00;;;;;;;;;4.75;3.75;;;;;22.35;26.00;101065.34;146596;697;46016;-80
2022/04/11 13:38:52;;;;;;;;;4.75;3.00;;;;;22.35;25.05;101053.03;146600;585;46029;-81
2022/04/11 13:41:47;;;;;;;;;6.75;6.75;;;;;22.35;25.90;101046.84;146598;563;47010;-81